AirNav   Everest Fuels
 
 1152 users online  

72IN River View Field Airport
Demotte, Indiana, USA

GOING TO DEMOTTE?


FAA INFORMATION EFFECTIVE 26 JANUARY 2023

Location

FAA Identifier: 72IN
Lat/Long: 41-10-42.4600N 087-19-04.8000W
41-10.707667N 087-19.080000W
41.1784611,-87.3180000
(estimated)
Elevation: 640 ft. / 195 m
From city: 5 miles W of DEMOTTE, IN
Time zone: UTC -6 (UTC -5 during Daylight Saving Time)
Zip code: 46381

Airport Operations

Airport use: Private use. Permission required prior to landing
Activation date: 11/2014
Control tower: no
ARTCC: CHICAGO CENTER
FSS: TERRE HAUTE FLIGHT SERVICE STATION
Attendance: UNATNDD
Wind indicator: yes
Segmented circle: no

Airport Communications

WX AWOS-3P at RZL (15 nm SE): 119.175 (219-866-7167)

Nearby radio navigation aids

VOR radial/distance  VOR name  Freq  Var
EONr102/22.0PEOTONE VORTAC113.2002E
CGTr148/22.9CHICAGO HEIGHTS VORTAC114.2002E
OXIr254/31.4KNOX VOR/DME115.6000E
BVTr342/39.0BOILER VORTAC115.1001E

Airport Services

Runway Information

Runway 18/36

Dimensions: 2500 x 50 ft. / 762 x 15 m
Surface: turf
RUNWAY 18  RUNWAY 36
Traffic pattern: leftleft

Airport Ownership and Management from official FAA records

Ownership: Privately-owned
Owner: ROBERT NEISES
P.O. BOX 268
CROWN POINT, IN 46308
Phone 219-663-3434
Manager: ROBERT NEISES
P.O. BOX 268
CROWN POINT, IN 46308
Phone 219-712-7695

Additional Remarks

FOR CD CTC CHICAGO ARTCC AT 630-906-8921.

Instrument Procedures

There are no published instrument procedures at 72IN.

Some nearby airports with instrument procedures:

KRZL - Jasper County Airport (15 nm SE)
C56 - Bult Field Airport (20 nm NW)
05C - Griffith-Merrillville Airport (21 nm N)
KVPZ - Porter County Regional Airport (22 nm NE)
3HO - Hobart Sky Ranch Airport (23 nm N)
 
Loc | Ops | Rwys | IFR | FBO | Links
Com | Nav | Svcs | Stats | Notes
Aerial photo
No photo
 
Airport distance calculator
Flying to River View Field Airport? Find the distance to fly.

From to 72IN

Sunrise and sunset
Times for 08-Feb-2023
 Local
(UTC-6)
 Zulu
(UTC)
Morning civil twilight06:2512:25
Sunrise06:5412:54
Sunset17:1323:13
Evening civil twilight17:4223:42

Current date and time
Zulu (UTC)  09-Feb-2023 02:13:08
Local (UTC-6)  08-Feb-2023 20:13:08
 
METAR
KRZL 
15nm SE 
090155Z AUTO 06006KT 10SM DZ BKN042 OVC048 02/01 A3011 RMK AO2
KVPZ 
22nm NE 
090156Z AUTO 08005KT 10SM OVC055 02/M01 A3011 RMK AO2 SLP206 T00221006
KIGQ 
23nm NW 
090155Z AUTO 06003KT 10SM SCT060 SCT075 OVC090 03/M01 A3012 RMK AO2 T00271011
KIKK 
25nm W 
090155Z AUTO 09005KT 10SM DZ SCT050 OVC060 03/00 A3009 RMK AO2 T00260000
KGYY 
27nm N 
090145Z 00000KT 10SM OVC095 03/M01 A3012
TAF
KGYY 
27nm N 
082053Z 0821/0918 14006KT P6SM BKN200 FM090300 10008KT 6SM -RA OVC040 FM090500 09011KT 4SM -RA BR SCT009 OVC015 FM090700 07014G23KT 2SM RA BR OVC005 PROB30 0912/0915 -TSRA OVC005CB FM091500 21015G25KT 3SM -RA BR OVC005
NOTAMs
Click for the latest NOTAMs
NOTAMs are issued by the DoD/FAA and will open in a separate window not controlled by AirNav.

 

 
 

Would you like to see your business listed on this page?

 If your business provides an interesting product or service to pilots, flight crews, aircraft, or users of the River View Field Airport, you should consider listing it here.  To start the listing process, click on the button below
 
Add a business
 

Other Pages about River View Field Airport

Update a link
 
Copyright © AirNav, LLC. All rights reserved. Privacy Policy  Contact